createdAt,value
2023-03-26T00:00:34.085Z,99873.78
2023-03-26T00:01:38.715Z,99874.69
2023-03-26T00:02:41.077Z,99872.09
2023-03-26T00:03:44.935Z,99869.50
2023-03-26T00:04:46.475Z,99867.81
2023-03-26T00:05:49.880Z,99877.31
2023-03-26T00:06:51.803Z,99875.63
2023-03-26T00:07:53.347Z,99873.91
2023-03-26T00:08:55.756Z,99877.34
2023-03-26T00:09:58.962Z,99880.00
2023-03-26T00:11:01.199Z,99888.69
2023-03-26T00:12:05.190Z,99883.50
2023-03-26T00:13:06.790Z,99881.75
2023-03-26T00:14:13.997Z,99882.63
2023-03-26T00:15:18.132Z,99886.94
2023-03-26T00:16:20.380Z,99891.31
2023-03-26T00:17:21.984Z,99900.81
2023-03-26T00:18:42.543Z,99893.00
2023-03-26T00:19:44.235Z,99887.78
2023-03-26T00:20:48.564Z,99889.56
2023-03-26T00:21:51.752Z,99903.44
2023-03-26T00:22:55.091Z,99900.81
2023-03-26T00:23:59.543Z,99903.44
2023-03-26T00:25:01.413Z,99912.13
2023-03-26T00:26:05.407Z,99910.38
2023-03-26T00:27:09.654Z,99913.81
2023-03-26T00:28:11.402Z,99913.81
2023-03-26T00:29:14.076Z,99919.03
2023-03-26T00:30:16.519Z,99913.81
2023-03-26T00:31:18.196Z,99920.72
2023-03-26T00:32:19.725Z,99913.81
2023-03-26T00:33:23.663Z,99918.16
2023-03-26T00:34:26.704Z,99921.63
2023-03-26T00:35:34.733Z,99923.38
2023-03-26T00:36:36.342Z,99932.06
2023-03-26T00:37:37.817Z,99932.91
2023-03-26T00:38:39.427Z,99929.47
2023-03-26T00:39:42.751Z,99935.47
2023-03-26T00:40:50.152Z,99930.31
2023-03-26T00:41:54.228Z,99933.75
2023-03-26T00:42:56.030Z,99932.88
2023-03-26T00:43:58.557Z,99929.41
2023-03-26T00:44:59.971Z,99929.41
2023-03-26T00:46:03.553Z,99926.81
2023-03-26T00:47:05.039Z,99929.41
2023-03-26T00:48:06.618Z,99932.88
2023-03-26T00:49:10.850Z,99925.94
2023-03-26T00:50:15.555Z,99925.09
2023-03-26T00:51:18.173Z,99938.16
2023-03-26T00:52:20.040Z,99937.28
2023-03-26T00:53:22.002Z,99933.00
2023-03-26T00:54:27.363Z,99942.53
2023-03-26T00:55:29.013Z,99939.97
2023-03-26T00:56:31.929Z,99936.53
2023-03-26T00:57:35.901Z,99941.78
2023-03-26T00:58:38.615Z,99937.41
2023-03-26T00:59:40.575Z,99941.78
2023-03-26T01:00:58.926Z,99940.00
2023-03-26T01:02:00.462Z,99945.25
2023-03-26T01:03:04.670Z,99938.28
2023-03-26T01:04:21.127Z,99940.94
2023-03-26T01:05:34.489Z,99940.06
2023-03-26T01:06:42.077Z,99938.31
2023-03-26T01:07:44.769Z,99945.31
2023-03-26T01:08:50.380Z,99940.13
2023-03-26T01:09:51.841Z,99941.00
2023-03-26T01:11:02.684Z,99946.22
2023-03-26T01:12:06.610Z,99946.25
2023-03-26T01:13:08.767Z,99942.81
2023-03-26T01:14:14.689Z,99946.31
2023-03-26T01:15:16.228Z,99944.56
2023-03-26T01:16:28.548Z,99945.41
2023-03-26T01:17:34.177Z,99955.00
2023-03-26T01:18:41.076Z,99950.66
2023-03-26T01:19:47.876Z,99952.47
2023-03-26T01:20:58.441Z,99950.72
2023-03-26T01:22:00.603Z,99956.81
2023-03-26T01:23:05.290Z,99957.69
2023-03-26T01:24:08.067Z,99954.22
2023-03-26T01:25:09.819Z,99955.97
2023-03-26T01:26:17.608Z,99958.56
2023-03-26T01:27:24.554Z,99955.16
2023-03-26T01:28:29.055Z,99960.34
2023-03-26T01:29:33.585Z,99966.41
2023-03-26T01:30:58.624Z,99963.81
2023-03-26T01:32:00.129Z,99970.75
2023-03-26T01:33:07.432Z,99957.72
2023-03-26T01:34:12.298Z,99965.53
2023-03-26T01:35:32.493Z,99959.44
2023-03-26T01:36:48.896Z,99961.16
2023-03-26T01:37:58.504Z,99964.66
2023-03-26T01:39:18.684Z,99960.31
2023-03-26T01:40:26.258Z,99956.84
2023-03-26T01:41:46.487Z,99961.16
2023-03-26T01:42:52.579Z,99962.94
2023-03-26T01:43:57.933Z,99964.66
2023-03-26T01:45:15.453Z,99962.94
2023-03-26T01:46:19.254Z,99971.63
2023-03-26T01:47:21.374Z,99969.03
2023-03-26T01:48:29.015Z,99968.16
2023-03-26T01:49:31.064Z,99968.16
2023-03-26T01:50:34.780Z,99973.34
2023-03-26T01:51:36.399Z,99979.41
2023-03-26T01:52:38.313Z,99975.97
2023-03-26T01:53:42.763Z,99975.94
2023-03-26T01:54:46.543Z,99973.34
2023-03-26T01:56:10.840Z,99970.75
2023-03-26T01:57:20.315Z,99973.34
2023-03-26T01:58:30.931Z,99978.56
2023-03-26T01:59:35.223Z,99972.47
2023-03-26T02:00:48.748Z,99980.31
2023-03-26T02:02:05.609Z,99980.31
2023-03-26T02:03:09.045Z,99985.50
2023-03-26T02:04:19.436Z,99983.81
2023-03-26T02:05:26.384Z,99995.97
2023-03-26T02:06:37.447Z,99988.19
2023-03-26T02:07:44.811Z,99998.63
2023-03-26T02:08:53.334Z,99996.94
2023-03-26T02:09:59.422Z,99993.47
2023-03-26T02:11:04.371Z,99996.16
2023-03-26T02:12:06.926Z,99988.38
2023-03-26T02:13:09.069Z,99999.69
2023-03-26T02:14:10.880Z,99991.06
2023-03-26T02:15:12.638Z,99998.00
2023-03-26T02:16:16.240Z,99989.34
2023-03-26T02:17:19.105Z,99995.44
2023-03-26T02:18:24.363Z,99994.56
2023-03-26T02:19:27.122Z,100004.16
2023-03-26T02:20:31.643Z,100005.91
2023-03-26T02:21:34.250Z,100001.56
2023-03-26T02:22:40.731Z,100005.06
2023-03-26T02:23:47.060Z,99999.88
2023-03-26T02:24:49.267Z,100001.66
2023-03-26T02:25:53.988Z,100003.38
2023-03-26T02:26:55.993Z,100007.72
2023-03-26T02:27:58.388Z,100020.75
2023-03-26T02:29:01.607Z,100010.41
2023-03-26T02:30:07.883Z,100015.69
2023-03-26T02:31:11.053Z,100008.78
2023-03-26T02:32:15.416Z,100006.22
2023-03-26T02:33:17.512Z,100009.69
2023-03-26T02:34:19.143Z,100012.34
2023-03-26T02:35:25.094Z,100007.19
2023-03-26T02:36:32.338Z,100009.81
2023-03-26T02:37:39.209Z,99997.72
2023-03-26T02:38:49.113Z,100007.28
2023-03-26T02:39:50.799Z,100002.13
2023-03-26T02:41:01.615Z,100010.81
2023-03-26T02:42:13.767Z,100008.25
2023-03-26T02:43:21.810Z,100004.84
2023-03-26T02:44:23.533Z,100003.16
2023-03-26T02:45:34.053Z,100004.03
2023-03-26T02:47:10.432Z,100010.19
2023-03-26T02:48:28.204Z,100006.72
2023-03-26T02:49:38.207Z,100010.22
2023-03-26T02:50:39.883Z,100011.97
2023-03-26T02:52:00.456Z,100005.91
2023-03-26T02:53:03.245Z,100009.38
2023-03-26T02:54:11.035Z,100004.19
2023-03-26T02:55:29.948Z,100011.16
2023-03-26T02:56:34.871Z,100001.63
2023-03-26T02:57:51.161Z,100007.69
2023-03-26T02:58:54.829Z,100005.97
2023-03-26T02:59:57.501Z,100011.22
2023-03-26T03:01:11.445Z,100008.66
2023-03-26T03:02:24.449Z,100008.66
2023-03-26T03:03:34.026Z,100015.59
2023-03-26T03:04:36.873Z,100012.19
2023-03-26T03:05:43.406Z,100016.50
2023-03-26T03:06:52.985Z,100020.03
2023-03-26T03:07:58.017Z,100019.16
2023-03-26T03:09:02.751Z,100013.13
2023-03-26T03:10:10.274Z,100020.06
2023-03-26T03:11:38.131Z,100018.34
2023-03-26T03:12:41.003Z,100025.25
2023-03-26T03:13:43.361Z,100021.88
2023-03-26T03:14:44.921Z,100019.25
2023-03-26T03:15:46.364Z,100014.06
2023-03-26T03:16:47.917Z,100015.81
2023-03-26T03:17:49.495Z,100021.03
2023-03-26T03:18:57.875Z,100023.69
2023-03-26T03:20:02.020Z,100025.44
2023-03-26T03:21:06.733Z,100028.88
2023-03-26T03:22:08.523Z,100023.72
2023-03-26T03:23:10.749Z,100026.31
2023-03-26T03:24:14.054Z,100027.19
2023-03-26T03:25:25.977Z,100022.84
2023-03-26T03:26:29.575Z,100021.09
2023-03-26T03:27:34.719Z,100029.78
2023-03-26T03:28:41.820Z,100021.16
2023-03-26T03:29:43.411Z,100019.47
2023-03-26T03:31:09.245Z,100021.22
2023-03-26T03:32:11.812Z,100022.09
2023-03-26T03:33:20.447Z,100024.72
2023-03-26T03:34:23.420Z,100020.41
2023-03-26T03:35:28.159Z,100030.81
2023-03-26T03:36:33.396Z,100021.31
2023-03-26T03:37:41.706Z,100024.78
2023-03-26T03:38:44.539Z,100030.00
2023-03-26T03:39:50.992Z,100023.13
2023-03-26T03:40:55.502Z,100027.44
2023-03-26T03:42:01.743Z,100020.50
2023-03-26T03:43:03.677Z,100028.34
2023-03-26T03:44:14.648Z,100027.50
2023-03-26T03:45:18.906Z,100024.03
2023-03-26T03:46:40.757Z,100034.47
2023-03-26T03:47:42.328Z,100031.00
2023-03-26T03:48:48.493Z,100034.47
2023-03-26T03:49:51.860Z,100032.78
2023-03-26T03:50:54.044Z,100031.03
2023-03-26T03:52:01.556Z,100036.22
2023-03-26T03:53:11.635Z,100031.91
2023-03-26T03:54:15.624Z,100030.19
2023-03-26T03:55:19.751Z,100037.09
2023-03-26T03:56:26.206Z,100028.47
2023-03-26T03:57:59.964Z,100038.00
2023-03-26T03:59:03.947Z,100039.69
2023-03-26T04:00:10.064Z,100044.03
2023-03-26T04:01:18.755Z,100038.00
2023-03-26T04:02:34.958Z,100034.50
2023-03-26T04:03:40.019Z,100030.22
2023-03-26T04:04:50.020Z,100034.53
2023-03-26T04:05:55.114Z,100035.41
2023-03-26T04:06:58.958Z,100035.41
2023-03-26T04:08:05.873Z,100031.97
2023-03-26T04:09:22.586Z,100038.91
2023-03-26T04:10:24.697Z,100031.13
2023-03-26T04:11:37.872Z,100037.22
2023-03-26T04:13:09.164Z,100038.09
2023-03-26T04:14:25.715Z,100037.28
2023-03-26T04:15:37.899Z,100035.56
2023-03-26T04:16:41.551Z,100039.03
2023-03-26T04:17:45.252Z,100034.72
2023-03-26T04:18:49.396Z,100037.31
2023-03-26T04:19:53.000Z,100031.28
2023-03-26T04:20:55.618Z,100033.03
2023-03-26T04:22:02.725Z,100027.88
2023-03-26T04:23:13.982Z,100033.06
2023-03-26T04:24:20.451Z,100027.03
2023-03-26T04:25:54.385Z,100024.44
2023-03-26T04:27:06.567Z,100029.66
2023-03-26T04:28:14.458Z,100025.31
2023-03-26T04:29:49.797Z,100026.16
2023-03-26T04:30:57.119Z,100027.91
2023-03-26T04:32:26.657Z,100027.06
2023-03-26T04:33:33.726Z,100027.91
2023-03-26T04:34:36.288Z,100023.59
2023-03-26T04:35:46.115Z,100028.75
2023-03-26T04:36:49.788Z,100027.09
2023-03-26T04:37:53.014Z,100022.78
2023-03-26T04:39:03.560Z,100025.38
2023-03-26T04:40:24.945Z,100018.44
2023-03-26T04:41:47.051Z,100026.25
2023-03-26T04:42:54.557Z,100025.41
2023-03-26T04:44:08.734Z,100020.19
2023-03-26T04:45:32.836Z,100022.78
2023-03-26T04:46:34.922Z,100021.91
2023-03-26T04:47:50.270Z,100027.09
2023-03-26T04:48:52.633Z,100024.50
2023-03-26T04:49:56.633Z,100024.50
2023-03-26T04:50:58.593Z,100034.03
2023-03-26T04:52:00.305Z,100021.88
2023-03-26T04:53:27.903Z,100016.69
2023-03-26T04:54:47.775Z,100021.88
2023-03-26T04:56:09.139Z,100022.78
2023-03-26T04:57:46.123Z,100026.25
2023-03-26T04:59:01.283Z,100024.50
2023-03-26T05:00:16.565Z,100020.19
2023-03-26T05:01:24.574Z,100020.19
2023-03-26T05:02:28.647Z,100021.06
2023-03-26T05:03:31.171Z,100021.94
2023-03-26T05:04:39.601Z,100021.09
2023-03-26T05:05:42.237Z,100018.50
2023-03-26T05:06:48.588Z,100021.09
2023-03-26T05:07:59.595Z,100024.53
2023-03-26T05:09:02.026Z,100028.91
2023-03-26T05:10:36.507Z,100027.16
2023-03-26T05:11:40.369Z,100024.53
2023-03-26T05:12:42.490Z,100031.50
2023-03-26T05:13:51.472Z,100028.91
2023-03-26T05:14:53.614Z,100032.41
2023-03-26T05:16:06.505Z,100028.91
2023-03-26T05:17:14.774Z,100025.44
2023-03-26T05:18:21.428Z,100024.59
2023-03-26T05:19:26.319Z,100030.66
2023-03-26T05:20:30.215Z,100028.03
2023-03-26T05:21:32.253Z,100031.53
2023-03-26T05:22:36.657Z,100025.44
2023-03-26T05:23:49.014Z,100030.66
2023-03-26T05:24:57.689Z,100028.97
2023-03-26T05:25:59.099Z,100030.66
2023-03-26T05:27:01.246Z,100026.38
2023-03-26T05:28:03.412Z,100026.38
2023-03-26T05:29:20.186Z,100031.56
2023-03-26T05:30:27.718Z,100035.88
2023-03-26T05:31:33.629Z,100035.03
2023-03-26T05:32:36.476Z,100030.69
2023-03-26T05:33:38.615Z,100033.28
2023-03-26T05:34:43.436Z,100024.66
2023-03-26T05:35:48.106Z,100027.25
2023-03-26T05:36:57.486Z,100027.25
2023-03-26T05:38:19.550Z,100026.38
2023-03-26T05:39:25.665Z,100029.00
2023-03-26T05:40:48.473Z,100032.50
2023-03-26T05:41:53.840Z,100033.38
2023-03-26T05:42:59.777Z,100035.09
2023-03-26T05:44:18.746Z,100042.88
2023-03-26T05:45:22.344Z,100042.91
2023-03-26T05:46:23.878Z,100042.06
2023-03-26T05:47:26.120Z,100038.63
2023-03-26T05:48:28.744Z,100044.66
2023-03-26T05:49:30.610Z,100042.97
2023-03-26T05:50:32.633Z,100041.22
2023-03-26T05:51:35.402Z,100041.25
2023-03-26T05:53:04.576Z,100038.66
2023-03-26T05:54:32.179Z,100047.38
2023-03-26T05:55:36.790Z,100048.25
2023-03-26T05:56:57.324Z,100039.56
2023-03-26T05:58:17.436Z,100046.47
2023-03-26T05:59:37.551Z,100043.03
2023-03-26T06:00:59.968Z,100044.75
2023-03-26T06:02:11.065Z,100046.50
2023-03-26T06:03:12.968Z,100049.94
2023-03-26T06:04:35.250Z,100053.47
2023-03-26T06:05:59.194Z,100045.66
2023-03-26T06:07:17.848Z,100051.72
2023-03-26T06:08:27.751Z,100050.00
2023-03-26T06:09:29.551Z,100052.56
2023-03-26T06:10:31.522Z,100059.50
2023-03-26T06:11:37.576Z,100060.38
2023-03-26T06:12:43.787Z,100059.50
2023-03-26T06:13:46.039Z,100067.28
2023-03-26T06:14:49.233Z,100060.34
2023-03-26T06:16:10.602Z,100056.03
2023-03-26T06:17:41.403Z,100066.44
2023-03-26T06:19:09.332Z,100062.09
2023-03-26T06:20:33.161Z,100066.44
2023-03-26T06:21:39.719Z,100066.44
2023-03-26T06:22:50.286Z,100068.16
2023-03-26T06:24:16.441Z,100062.09
2023-03-26T06:25:25.178Z,100059.50
2023-03-26T06:26:59.618Z,100073.38
2023-03-26T06:28:21.471Z,100072.56
2023-03-26T06:29:52.572Z,100074.28
2023-03-26T06:31:13.344Z,100068.22
2023-03-26T06:32:28.825Z,100076.88
2023-03-26T06:33:40.575Z,100079.47
2023-03-26T06:34:43.565Z,100078.59
2023-03-26T06:35:50.666Z,100083.78
2023-03-26T06:36:52.740Z,100083.81
2023-03-26T06:37:56.010Z,100082.06
2023-03-26T06:38:57.718Z,100086.41
2023-03-26T06:39:59.219Z,100088.16
2023-03-26T06:41:22.409Z,100083.81
2023-03-26T06:43:08.022Z,100084.66
2023-03-26T06:44:29.372Z,100080.34
2023-03-26T06:45:52.752Z,100088.97
2023-03-26T06:47:12.683Z,100092.44
2023-03-26T06:48:31.035Z,100094.16
2023-03-26T06:49:51.472Z,100091.53
2023-03-26T06:51:13.701Z,100101.00
2023-03-26T06:52:38.578Z,100098.41
2023-03-26T06:54:10.845Z,100099.19
2023-03-26T06:55:26.199Z,100084.47
2023-03-26T06:56:36.743Z,100101.78
2023-03-26T06:58:01.063Z,100102.59
2023-03-26T06:59:23.276Z,100103.44
2023-03-26T07:00:43.576Z,100099.94
2023-03-26T07:02:05.199Z,100108.66
2023-03-26T07:03:35.629Z,100106.03
2023-03-26T07:04:56.175Z,100107.75
2023-03-26T07:06:35.089Z,100109.50
2023-03-26T07:07:55.323Z,100114.66
2023-03-26T07:09:15.692Z,100110.31
2023-03-26T07:10:35.924Z,100107.72
2023-03-26T07:11:49.216Z,100112.91
2023-03-26T07:13:09.585Z,100112.91
2023-03-26T07:14:13.494Z,100105.13
2023-03-26T07:15:24.116Z,100112.03
2023-03-26T07:16:44.222Z,100106.84
2023-03-26T07:18:05.118Z,100112.91
2023-03-26T07:19:09.476Z,100112.03
2023-03-26T07:20:18.444Z,100107.69
2023-03-26T07:21:21.547Z,100115.50
2023-03-26T07:22:24.480Z,100113.75
2023-03-26T07:23:47.845Z,100108.56
2023-03-26T07:25:12.937Z,100114.66
2023-03-26T07:26:44.923Z,100106.84
2023-03-26T07:28:06.622Z,100106.84
2023-03-26T07:29:40.554Z,100103.38
2023-03-26T07:31:04.976Z,100108.50
2023-03-26T07:32:21.526Z,100111.06
2023-03-26T07:33:44.555Z,100105.88
2023-03-26T07:35:16.244Z,100098.97
2023-03-26T07:36:45.404Z,100106.78
2023-03-26T07:38:14.952Z,100098.03
2023-03-26T07:39:28.913Z,100108.44
2023-03-26T07:41:03.819Z,100101.47
2023-03-26T07:42:25.472Z,100110.13
2023-03-26T07:44:19.312Z,100102.31
2023-03-26T07:45:57.590Z,100104.06
2023-03-26T07:47:04.697Z,100107.50
2023-03-26T07:48:40.756Z,100119.59
2023-03-26T07:49:46.424Z,100102.22
2023-03-26T07:51:20.855Z,100105.66
2023-03-26T07:52:29.401Z,100101.28
2023-03-26T07:53:39.594Z,100110.81
2023-03-26T07:55:13.489Z,100109.91
2023-03-26T07:56:54.105Z,100113.38
2023-03-26T07:58:22.600Z,100115.13
2023-03-26T07:59:48.821Z,100102.94
2023-03-26T08:00:57.521Z,100111.56
2023-03-26T08:02:14.081Z,100112.38
2023-03-26T08:03:24.797Z,100110.59
2023-03-26T08:04:49.358Z,100107.91
2023-03-26T08:06:18.379Z,100108.69
2023-03-26T08:07:53.291Z,100114.69
2023-03-26T08:09:07.585Z,100110.34
2023-03-26T08:10:48.635Z,100112.91
2023-03-26T08:11:58.613Z,100111.13
2023-03-26T08:13:00.343Z,100104.22
2023-03-26T08:14:21.803Z,100112.84
2023-03-26T08:15:25.602Z,100104.13
2023-03-26T08:16:30.148Z,100104.97
2023-03-26T08:17:42.769Z,100107.56
2023-03-26T08:18:56.113Z,100109.25
2023-03-26T08:20:07.593Z,100104.88
2023-03-26T08:21:16.947Z,100109.19
2023-03-26T08:22:29.357Z,100104.78
2023-03-26T08:23:31.336Z,100114.25
2023-03-26T08:24:43.547Z,100107.31
2023-03-26T08:26:03.440Z,100105.50
2023-03-26T08:27:22.731Z,100108.13
2023-03-26T08:28:44.709Z,100106.34
2023-03-26T08:30:08.495Z,100107.19
2023-03-26T08:31:14.488Z,100104.63
2023-03-26T08:32:19.391Z,100118.47
2023-03-26T08:33:23.927Z,100108.06
2023-03-26T08:34:25.482Z,100098.56
2023-03-26T08:35:27.800Z,100108.94
2023-03-26T08:36:29.615Z,100118.47
2023-03-26T08:37:33.593Z,100115.84
2023-03-26T08:38:35.187Z,100112.34
2023-03-26T08:39:38.766Z,100114.06
2023-03-26T08:40:44.368Z,100108.81
2023-03-26T08:41:51.935Z,100113.97
2023-03-26T08:43:12.602Z,100112.16
2023-03-26T08:44:17.407Z,100115.56
2023-03-26T08:45:29.276Z,100117.28
2023-03-26T08:46:33.751Z,100114.63
2023-03-26T08:47:57.223Z,100120.66
2023-03-26T08:49:17.615Z,100115.41
2023-03-26T08:50:39.454Z,100111.06
2023-03-26T08:52:12.150Z,100107.50
2023-03-26T08:53:28.565Z,100109.16
2023-03-26T08:54:57.524Z,100107.38
2023-03-26T08:56:03.433Z,100116.03
2023-03-26T08:57:30.935Z,100115.22
2023-03-26T08:58:41.731Z,100114.41
2023-03-26T09:00:02.821Z,100114.34
2023-03-26T09:01:16.731Z,100109.97
2023-03-26T09:02:37.388Z,100111.63
2023-03-26T09:03:53.686Z,100104.50
2023-03-26T09:04:58.386Z,100107.06
2023-03-26T09:06:03.099Z,100112.22
2023-03-26T09:07:23.416Z,100114.84
2023-03-26T09:08:53.878Z,100106.09
2023-03-26T09:10:09.081Z,100115.66
2023-03-26T09:11:19.597Z,100104.38
2023-03-26T09:12:33.372Z,100099.91
2023-03-26T09:13:34.881Z,100097.22
2023-03-26T09:15:01.087Z,100098.00
2023-03-26T09:16:18.425Z,100097.03
2023-03-26T09:17:53.214Z,100104.78
2023-03-26T09:18:59.094Z,100095.16
2023-03-26T09:20:00.573Z,100102.13
2023-03-26T09:21:01.937Z,100106.47
2023-03-26T09:22:15.317Z,100103.81
2023-03-26T09:23:35.843Z,100107.25
2023-03-26T09:24:37.292Z,100102.84
2023-03-26T09:25:57.615Z,100099.31
2023-03-26T09:27:14.102Z,100103.50
2023-03-26T09:28:29.179Z,100100.75
2023-03-26T09:29:34.449Z,100099.75
2023-03-26T09:30:38.557Z,100105.75
2023-03-26T09:32:00.420Z,100104.84
2023-03-26T09:33:06.457Z,100103.94
2023-03-26T09:34:26.943Z,100097.75
2023-03-26T09:35:31.446Z,100096.78
2023-03-26T09:36:45.281Z,100101.13
2023-03-26T09:37:56.740Z,100106.31
2023-03-26T09:39:09.687Z,100098.44
2023-03-26T09:40:14.174Z,100104.50
2023-03-26T09:41:17.707Z,100104.41
2023-03-26T09:42:34.467Z,100103.53
2023-03-26T09:43:58.758Z,100088.69
2023-03-26T09:45:18.972Z,100097.56
2023-03-26T09:46:32.675Z,100094.97
2023-03-26T09:47:37.537Z,100098.56
2023-03-26T09:48:50.519Z,100096.81
2023-03-26T09:50:03.598Z,100096.88
2023-03-26T09:51:20.384Z,100108.19
2023-03-26T09:52:21.800Z,100103.78
2023-03-26T09:53:41.623Z,100107.19
2023-03-26T09:55:08.044Z,100106.19
2023-03-26T09:56:09.632Z,100107.00
2023-03-26T09:57:11.068Z,100100.03
2023-03-26T09:58:18.082Z,100099.13
2023-03-26T09:59:37.940Z,100105.22
2023-03-26T10:00:48.027Z,100099.19
2023-03-26T10:01:57.955Z,100106.22
2023-03-26T10:03:20.850Z,100101.03
2023-03-26T10:04:41.272Z,100094.13
2023-03-26T10:05:54.897Z,100099.34
2023-03-26T10:07:05.389Z,100100.19
2023-03-26T10:08:28.830Z,100106.34
2023-03-26T10:09:37.771Z,100102.78
2023-03-26T10:10:39.179Z,100097.44
2023-03-26T10:11:56.016Z,100097.28
2023-03-26T10:13:14.898Z,100102.25
2023-03-26T10:14:25.785Z,100101.16
2023-03-26T10:15:32.464Z,100108.78
2023-03-26T10:16:52.509Z,100102.56
2023-03-26T10:18:27.697Z,100105.84
2023-03-26T10:19:54.354Z,100110.81
2023-03-26T10:21:01.681Z,100120.28
2023-03-26T10:22:22.047Z,100113.38
2023-03-26T10:23:39.872Z,100119.56
2023-03-26T10:24:47.673Z,100117.03
2023-03-26T10:26:01.442Z,100118.84
2023-03-26T10:27:18.913Z,100122.31
2023-03-26T10:28:37.392Z,100115.31
2023-03-26T10:29:58.680Z,100106.47
2023-03-26T10:31:09.080Z,100109.78
2023-03-26T10:32:27.434Z,100109.75
2023-03-26T10:33:47.976Z,100107.84
2023-03-26T10:35:11.696Z,100103.31
2023-03-26T10:36:29.653Z,100114.53
2023-03-26T10:37:43.378Z,100114.34
2023-03-26T10:39:03.338Z,100121.38
2023-03-26T10:40:20.899Z,100118.81
2023-03-26T10:41:29.549Z,100112.78
2023-03-26T10:42:34.957Z,100115.50
2023-03-26T10:44:07.330Z,100112.03
2023-03-26T10:45:10.833Z,100113.69
2023-03-26T10:46:31.696Z,100110.13
2023-03-26T10:47:50.785Z,100119.53
2023-03-26T10:49:03.519Z,100110.75
2023-03-26T10:50:29.176Z,100117.69
2023-03-26T10:51:51.463Z,100122.06
2023-03-26T10:53:00.102Z,100122.28
2023-03-26T10:54:07.483Z,100121.63
2023-03-26T10:55:35.271Z,100117.44
2023-03-26T10:56:39.990Z,100115.75
2023-03-26T10:57:45.811Z,100126.19
2023-03-26T10:58:50.614Z,100118.25
2023-03-26T10:59:56.500Z,100119.81
2023-03-26T11:01:06.100Z,100114.53
2023-03-26T11:02:36.970Z,100113.59
2023-03-26T11:03:45.670Z,100116.25
2023-03-26T11:04:59.343Z,100111.81
2023-03-26T11:06:00.954Z,100114.34
2023-03-26T11:07:21.073Z,100117.78
2023-03-26T11:08:49.728Z,100117.69
2023-03-26T11:10:06.367Z,100116.69
2023-03-26T11:11:26.628Z,100113.06
2023-03-26T11:12:46.696Z,100119.84
2023-03-26T11:14:11.460Z,100125.78
2023-03-26T11:15:22.713Z,100118.53
2023-03-26T11:16:33.471Z,100111.31
2023-03-26T11:17:53.615Z,100111.91
2023-03-26T11:19:06.229Z,100112.50
2023-03-26T11:20:08.410Z,100108.00
2023-03-26T11:21:26.532Z,100110.56
2023-03-26T11:22:37.286Z,100121.88
2023-03-26T11:23:49.823Z,100120.16
2023-03-26T11:25:06.925Z,100124.59
2023-03-26T11:26:23.430Z,100128.16
2023-03-26T11:27:36.277Z,100129.13
2023-03-26T11:29:03.309Z,100132.75
2023-03-26T11:30:06.347Z,100127.69
2023-03-26T11:31:22.341Z,100133.88
2023-03-26T11:32:27.308Z,100123.56
2023-03-26T11:33:34.889Z,100123.56
2023-03-26T11:34:38.934Z,100125.38
2023-03-26T11:35:42.941Z,100119.22
2023-03-26T11:36:50.468Z,100119.91
2023-03-26T11:37:53.682Z,100121.50
2023-03-26T11:38:58.792Z,100114.34
2023-03-26T11:40:11.537Z,100113.19
2023-03-26T11:41:22.889Z,100115.59
2023-03-26T11:42:34.553Z,100107.38
2023-03-26T11:43:36.743Z,100102.81
2023-03-26T11:44:42.098Z,100114.00
2023-03-26T11:45:51.877Z,100110.38
2023-03-26T11:46:58.797Z,100113.72
2023-03-26T11:48:18.304Z,100113.66
2023-03-26T11:49:22.156Z,100116.38
2023-03-26T11:50:27.688Z,100116.56
2023-03-26T11:51:36.744Z,100123.09
2023-03-26T11:52:38.454Z,100124.13
2023-03-26T11:53:39.991Z,100120.84
2023-03-26T11:54:43.479Z,100116.59
2023-03-26T11:55:49.049Z,100121.94
2023-03-26T11:57:04.458Z,100122.78
2023-03-26T11:58:17.493Z,100118.41
2023-03-26T11:59:21.256Z,100114.81
2023-03-26T12:00:27.690Z,100114.03
2023-03-26T12:01:44.330Z,100120.94
2023-03-26T12:02:49.604Z,100114.66
2023-03-26T12:04:05.671Z,100110.16
2023-03-26T12:05:16.382Z,100109.06
2023-03-26T12:06:25.653Z,100112.34
2023-03-26T12:07:33.487Z,100105.28
2023-03-26T12:08:38.573Z,100110.38
2023-03-26T12:09:52.018Z,100107.69
2023-03-26T12:11:10.991Z,100105.00
2023-03-26T12:12:12.470Z,100105.84
2023-03-26T12:13:26.483Z,100103.28
2023-03-26T12:14:29.482Z,100108.69
2023-03-26T12:15:32.130Z,100101.88
2023-03-26T12:16:34.424Z,100102.00
2023-03-26T12:17:37.330Z,100104.59
2023-03-26T12:18:41.027Z,100109.06
2023-03-26T12:19:45.568Z,100106.47
2023-03-26T12:20:48.490Z,100111.72
2023-03-26T12:21:51.425Z,100103.03
2023-03-26T12:22:53.797Z,100103.94
2023-03-26T12:23:56.295Z,100098.69
2023-03-26T12:25:01.387Z,100099.47
2023-03-26T12:26:17.327Z,100097.59
2023-03-26T12:27:21.768Z,100096.53
2023-03-26T12:28:25.407Z,100100.72
2023-03-26T12:29:34.397Z,100103.19
2023-03-26T12:30:39.676Z,100090.81
2023-03-26T12:32:04.575Z,100100.28
2023-03-26T12:33:08.270Z,100097.50
2023-03-26T12:34:15.330Z,100100.91
2023-03-26T12:35:18.739Z,100104.16
2023-03-26T12:36:27.716Z,100103.13
2023-03-26T12:37:42.964Z,100110.00
2023-03-26T12:39:15.868Z,100109.09
2023-03-26T12:40:27.632Z,100099.44
2023-03-26T12:43:40.602Z,100101.06
2023-03-26T12:44:54.772Z,100105.69
2023-03-26T12:44:55.788Z,100101.94
2023-03-26T12:47:56.432Z,100103.13
2023-03-26T12:47:58.042Z,100094.31
2023-03-26T12:48:37.695Z,100099.53
2023-03-26T12:49:39.156Z,100100.34
2023-03-26T12:50:58.019Z,100095.00
2023-03-26T12:52:13.608Z,100098.44
2023-03-26T12:53:31.961Z,100102.78
2023-03-26T12:54:55.501Z,100098.56
2023-03-26T12:56:19.996Z,100102.06
2023-03-26T12:57:21.665Z,100095.16
2023-03-26T12:58:33.775Z,100103.97
2023-03-26T12:59:47.575Z,100103.47
2023-03-26T13:00:56.693Z,100098.50
2023-03-26T13:01:58.369Z,100099.56
2023-03-26T13:03:24.824Z,100104.00
2023-03-26T13:04:43.637Z,100111.00
2023-03-26T13:05:50.717Z,100104.22
2023-03-26T13:07:00.567Z,100104.34
2023-03-26T13:08:15.822Z,100099.16
2023-03-26T13:09:25.351Z,100093.03
2023-03-26T13:10:33.623Z,100106.06
2023-03-26T13:11:48.386Z,100101.63
2023-03-26T13:12:59.756Z,100099.81
2023-03-26T13:14:10.000Z,100098.09
2023-03-26T13:15:22.641Z,100102.47
2023-03-26T13:16:44.660Z,100096.31
2023-03-26T13:17:46.431Z,100098.00
2023-03-26T13:19:01.620Z,100094.47
2023-03-26T13:20:12.369Z,100098.78
2023-03-26T13:21:21.609Z,100095.38
2023-03-26T13:22:32.676Z,100092.97
2023-03-26T13:23:37.228Z,100089.56
2023-03-26T13:25:02.915Z,100087.09
2023-03-26T13:26:16.828Z,100091.41
2023-03-26T13:27:18.322Z,100086.16
2023-03-26T13:28:25.688Z,100088.78
2023-03-26T13:29:32.230Z,100086.16
2023-03-26T13:30:39.143Z,100090.41
2023-03-26T13:31:43.392Z,100092.13
2023-03-26T13:32:58.592Z,100088.56
2023-03-26T13:34:23.460Z,100085.00
2023-03-26T13:35:44.041Z,100083.13